Weather observations for the past three days for
Eveleth-Virginia Municipal Airport
Imperial (Metric)
Date Time (cdt) Wind (mph) Vis. (mi.) Weather Sky Cond. Temperature (ºF) Relative Humidity Wind Chill (°F) Heat Index (°F) Pressure Precipitation (in)
Air Dwpt 6 hour altimeter (in) sea level (mb) 1 hr 3 hr 6 hr
Max. Min.
10 10:55 N 12 G 18 10.00 Overcast OVC039 39.4 24.3 55% 33 30.14 0.0
10 10:35 NW 12 G 17 10.00 Overcast OVC037 39.6 23 52% 33 30.13 0.0
10 10:15 NW 13 G 17 10.00 Overcast OVC035 38.5 25.7 60% 31 30.12 0.0
10 09:55 NW 9 10.00 Mostly Cloudy SCT025 BKN035 BKN046 39.6 27.5 62% 34 30.11 0.0
10 09:35 NW 10 10.00 Overcast BKN023 BKN032 OVC046 38.1 28.9 70% 32 30.11 0.0
10 09:15 NW 9 10.00 Overcast BKN021 BKN028 OVC049 38.3 29.3 70% 33 30.1 0.0
10 08:55 N 8 10.00 Mostly Cloudy BKN019 BKN026 38.7 30 71% 34 30.1 0.0
10 08:35 NW 9 G 16 10.00 Mostly Cloudy BKN015 36.3 30.6 80% 30 30.1 0.0
10 08:15 NW 12 10.00 Overcast BKN013 OVC024 36.1 31.1 82% 29 30.1 0.0
10 07:55 NW 10 10.00 Overcast SCT013 BKN019 OVC042 35.8 30.7 82% 29 30.09 0.0
10 07:35 NW 9 10.00 Overcast SCT011 BKN025 OVC042 34 30 85% 27 30.07 0.0
10 07:15 NW 8 10.00 Overcast SCT022 BKN028 OVC042 34 29.8 85% 28 30.06 0.0
10 06:55 NW 6 10.00 Mostly Cloudy SCT014 SCT020 BKN033 34 29.3 41.4 33.4 83% 29 30.05 0.0
10 06:35 NW 9 10.00 Partly Cloudy SCT016 SCT033 33.4 29.1 84% 27 30.05 0.0
10 06:15 NW 9 10.00 Overcast OVC018 33.4 28.4 82% 27 30.03 0.0
10 05:55 NW 7 10.00 Mostly Cloudy BKN018 34 28.4 80% 29 30.02 0.0
10 05:35 NW 13 G 18 10.00 Partly Cloudy SCT020 33.8 28.4 81% 25 30.02 0.0
10 05:15 NW 9 10.00 Partly Cloudy SCT036 34 28.8 81% 27 30.01 0.0
10 04:55 NW 9 10.00 Fair CLR 34.3 28.6 80% 28 30 0.0
10 04:35 NW 8 G 17 10.00 Fair CLR 35.6 29.1 77% 30 30 0.0
10 04:15 NW 10 G 16 10.00 Fair CLR 36.5 28.9 74% 30 29.99 0.0
10 03:55 NW 13 G 17 10.00 Partly Cloudy SCT050 36.9 30.7 79% 29 29.98 0.0
10 03:35 NW 8 10.00 Fair CLR 37 30.6 77% 32 29.98 0.0
10 03:15 NW 8 10.00 Fair CLR 37.6 30.6 76% 32 29.97 0.0
10 02:55 NW 9 G 17 10.00 Partly Cloudy SCT048 38.3 30.2 73% 33 29.96 0.0
10 02:35 NW 10 10.00 Mostly Cloudy SCT048 BKN060 39.4 30.2 70% 33 29.96 0.0
10 02:15 NW 9 10.00 Overcast OVC065 39.9 30 68% 34 29.96 0.0
10 01:55 NW 10 10.00 Overcast BKN050 OVC065 40.5 29.8 66% 35 29.95 0.0
10 01:35 NW 10 10.00 Overcast BKN050 OVC065 40.3 29.5 65% 34 29.95 0.0
10 01:15 W 6 10.00 Overcast BKN050 BKN070 OVC110 40.5 28.9 64% 37 29.95 0.0
10 00:55 NW 9 10.00 Overcast BKN050 BKN070 OVC110 41.2 28.9 47.5 39.9 62% 36 29.95 0.0
10 00:35 W 8 10.00 Overcast SCT050 OVC055 41.2 28.4 60% 37 29.93 0.0
10 00:15 NW 8 10.00 Overcast BKN055 OVC120 41 27.7 59% 36 29.93 0.0
09 23:55 NW 8 10.00 Overcast BKN060 BKN065 OVC120 41.2 27.3 58% 37 29.93 0.0
09 23:35 W 6 10.00 Overcast BKN060 OVC120 41 27 57% 38 29.93 0.0
09 23:15 W 5 10.00 Overcast SCT060 SCT090 OVC120 40.8 26.6 57% 38 29.93 0.0
09 22:55 NW 6 10.00 Overcast SCT100 OVC120 40.8 26.4 57% 37 29.92 0.0
09 22:35 W 6 10.00 Overcast OVC110 41.2 25.9 55% 38 29.92 0.0
09 22:15 W 3 10.00 Mostly Cloudy SCT100 BKN120 41 24.3 51% 29.92 0.0
09 21:55 W 5 10.00 Partly Cloudy SCT120 40.5 23.7 51% 38 29.91 0.0
09 21:35 NW 5 10.00 Partly Cloudy SCT110 41.4 24.4 51% 39 29.91 0.0
09 21:15 NW 8 10.00 Fair CLR 43 24.3 48% 39 29.91 0.0
09 20:55 NW 8 10.00 Fair CLR 43.7 23.9 46% 40 29.9 0.0
09 20:35 NW 13 G 18 10.00 Fair CLR 44.1 23.7 45% 38 29.89 0.0
09 20:15 NW 7 10.00 Partly Cloudy SCT080 44.2 23.9 45% 41 29.88 0.0
09 19:55 NW 8 G 17 10.00 Mostly Cloudy SCT060 BKN080 45.7 23.7 42% 42 29.88 0.0
09 19:35 N 9 10.00 Mostly Cloudy SCT060 BKN080 46.2 23.7 41% 42 29.88 0.0
09 19:15 NW 16 G 24 10.00 Mostly Cloudy BKN080 46.4 23 40% 40 29.87 0.0
09 18:55 NW 15 G 23 10.00 Overcast SCT060 OVC080 47.3 23.2 51.8 46.8 39% 42 29.87 0.0
09 18:35 N 20 G 28 10.00 Mostly Cloudy SCT060 BKN070 48.4 22.5 36% 42 29.86 0.0
09 18:15 NW 13 G 22 10.00 Mostly Cloudy BKN070 47.3 22.8 38% 42 29.85 0.0
09 17:55 NW 15 G 24 10.00 Mostly Cloudy BKN070 BKN080 47.3 23 38% 42 29.85 0.0
09 17:35 N 16 G 24 10.00 Mostly Cloudy BKN060 48 23.7 38% 42 29.84 0.0
09 17:15 N 14 G 26 10.00 Mostly Cloudy BKN060 BKN070 49.5 24.4 38% 45 29.84 0.0
09 16:55 N 15 G 24 10.00 Mostly Cloudy BKN060 BKN070 49.5 24.3 37% 44 29.83 0.0
09 16:35 NW 13 G 26 10.00 Mostly Cloudy BKN060 BKN070 BKN080 50.2 25.5 38% 29.83 0.0
09 16:15 NW 22 G 29 10.00 Overcast and Breezy SCT060 OVC070 50 25.3 38% 44 29.81 0.0
09 15:55 NW 18 G 24 10.00 Mostly Cloudy BKN070 BKN080 48.7 23.4 37% 43 29.81 0.0
09 15:35 NW 18 G 26 10.00 Mostly Cloudy BKN080 50.5 23.7 35% 29.8 0.0
09 15:15 NW 18 G 28 10.00 Overcast BKN065 OVC075 49.3 23.5 36% 43 29.79 0.0
09 14:55 NW 14 G 20 10.00 Overcast BKN070 OVC085 48.7 23.4 37% 44 29.79 0.0
09 14:35 NW 13 G 21 10.00 Overcast OVC070 49.6 24.1 37% 45 29.78 0.0
09 14:15 NW 12 G 20 10.00 Overcast OVC070 50.4 24.1 36% 29.78 0.0
09 13:55 N 14 G 23 10.00 Mostly Cloudy BKN055 47.1 23.2 39% 42 29.78 0.0
09 13:35 NW 15 G 30 10.00 Partly Cloudy SCT055 48.2 23 37% 43 29.77 0.0
09 13:15 NW 17 G 26 10.00 Overcast BKN055 OVC065 47.8 24.3 40% 42 29.76 0.0
09 12:55 NW 14 G 24 10.00 Overcast BKN055 OVC065 46.4 23.7 47.7 39.6 41% 41 29.77 0.0
09 12:35 NW 14 G 22 10.00 Overcast BKN055 OVC065 45.7 23 41% 40 29.76 0.0
09 12:15 N 15 G 22 10.00 Overcast SCT055 OVC065 45.9 23.2 41% 40 29.76 0.0
09 11:55 N 13 G 21 10.00 Overcast OVC065 45.9 22.8 40% 41 29.75 0.0
09 11:35 N 15 G 21 10.00 Mostly Cloudy BKN050 44.4 22.5 42% 38 29.75 0.0
09 11:15 NW 14 G 26 10.00 Mostly Cloudy BKN050 44.4 22.5 42% 38 29.75 0.0
09 10:55 NW 18 G 30 10.00 Overcast OVC050 43.2 23 45% 36 29.74 0.0
09 10:35 N 14 G 23 10.00 Overcast OVC050 43.5 23.4 45% 37 29.73 0.0
09 10:15 N 18 G 26 10.00 Overcast OVC050 43.9 23.2 44% 37 29.72 0.0
09 09:55 N 16 G 26 10.00 Mostly Cloudy BKN050 44.1 23.5 44% 37 29.71 0.0
09 09:35 NW 15 G 26 10.00 Partly Cloudy SCT048 44.2 23.7 44% 38 29.71 0.0
09 09:15 NW 13 G 20 10.00 Partly Cloudy SCT044 44.4 25.2 47% 39 29.7 0.0
09 08:55 N 10 G 17 10.00 Partly Cloudy SCT038 44.1 27.5 52% 39 29.69 0.0
09 08:35 NW 16 G 23 10.00 Fair CLR 42.4 26.8 54% 35 29.68 0.0
09 08:15 NW 15 G 22 10.00 Fair CLR 41.5 26.2 55% 34 29.68 0.0
09 07:55 NW 12 10.00 Fair CLR 41.5 25.7 53% 36 29.67 0.0
09 07:35 NW 15 G 22 10.00 Fair CLR 40.5 24.3 52% 33 29.65 0.0
09 07:15 NW 12 G 18 10.00 Fair CLR 40.3 23.9 52% 34 29.65 0.0
09 06:55 NW 14 10.00 Fair CLR 39.6 22.8 46.4 39.6 51% 32 29.64 0.0
09 06:35 NW 12 G 23 10.00 Partly Cloudy SCT100 40.5 22.3 48% 34 29.64 0.0
09 06:15 NW 13 G 22 10.00 Overcast OVC100 41 21.9 47% 34 29.63 0.0
09 05:55 NW 14 G 17 10.00 Overcast OVC100 41.7 21.7 45% 35 29.62 0.0
09 05:35 NW 9 10.00 Overcast OVC100 41.7 21.7 45% 37 29.61 0.0
09 05:15 N 8 10.00 Overcast OVC100 41.9 21.2 44% 37 29.61 0.0
09 04:55 NW 10 10.00 Mostly Cloudy BKN095 42.1 20.5 42% 37 29.61 0.0
09 04:35 N 10 10.00 Overcast OVC085 43.2 20.1 40% 38 29.6 0.0
09 04:15 NW 5 10.00 Overcast SCT055 OVC085 42.8 21.9 44% 41 29.6 0.0
09 03:55 NW 6 10.00 Overcast SCT055 SCT065 OVC085 43 22.1 44% 40 29.59 0.0
09 03:35 NW 6 10.00 Overcast SCT055 BKN095 OVC120 43.2 23 45% 40 29.59 0.0
09 03:15 NW 5 10.00 Overcast SCT075 BKN100 OVC120 43.9 20.8 40% 42 29.58 0.0
09 02:55 NW 6 10.00 Mostly Cloudy SCT075 BKN100 BKN120 44.8 19.6 37% 42 29.58 0.0
09 02:35 NW 6 10.00 Overcast OVC100 45.5 19.2 35% 43 29.58 0.0
09 02:15 NW 6 10.00 Overcast OVC100 45.1 20.5 37% 43 29.58 0.0
09 01:55 NW 5 10.00 Mostly Cloudy BKN110 44.4 23 43% 42 29.58 0.0
09 01:35 NW 3 10.00 Mostly Cloudy BKN110 46.2 21.4 37% 29.57 0.0
09 01:15 N 3 10.00 Overcast OVC100 46.4 24.1 42% 29.58 0.0
09 00:55 NW 3 10.00 Overcast OVC100 45.5 26.4 59.9 37.8 47% 29.58 0.0
09 00:35 NW 3 10.00 Overcast OVC100 45.9 27.3 48% 29.58 0.0
09 00:15 NW 5 10.00 Overcast OVC100 42.4 30 62% 40 29.59 0.0
08 23:55 Calm 10.00 Mostly Cloudy BKN110 39.7 30.7 70% 29.57 0.0
08 23:35 Calm 10.00 Fair CLR 39.7 30.6 70% 29.58 0.0
08 23:15 Calm 10.00 Fair CLR 37.9 29.5 72% 29.58 0.0
08 22:55 Calm 10.00 Fair CLR 39 26.2 60% 29.58 0.0
08 22:35 Calm 10.00 Fair CLR 40.3 26.8 59% 29.57 0.0
08 22:15 Calm 10.00 Fair CLR 42.6 26.1 52% 29.58 0.0
08 21:55 Calm 10.00 Fair CLR 47.1 25.5 43% 29.57 0.0
08 21:35 N 3 10.00 Fair CLR 50.9 24.4 36% 29.57 0.0
08 21:15 N 5 10.00 Fair CLR 51.8 24.8 35% 29.57 0.0
08 20:55 N 6 10.00 Fair CLR 52.7 25 34% 29.57 0.0
08 20:35 NW 10 G 17 10.00 Partly Cloudy SCT085 54 26.4 35% 29.57 0.0
08 20:15 NW 9 G 16 10.00 Partly Cloudy SCT085 54.9 28 36% 29.56 0.0
08 19:55 N 13 G 23 10.00 Mostly Cloudy BKN085 56.7 28.8 34% 29.55 0.0
08 19:35 NW 10 G 22 10.00 Mostly Cloudy BKN085 58.6 28.9 32% 29.54 0.0
08 19:15 W 8 10.00 Partly Cloudy SCT100 58.8 29.7 33% 29.54 0.0
08 18:55 W 15 G 18 10.00 Partly Cloudy SCT100 59.2 28.6 60.3 57.7 31% 29.54 0.0
08 18:35 W 7 10.00 Partly Cloudy SCT090 59 26.4 29% 29.54 0.0
08 18:15 W 6 10.00 Overcast OVC090 59.4 25.7 28% 29.54 0.0
08 17:55 NW 8 10.00 Overcast OVC090 57.7 24.6 28% 29.55 0.0
08 17:35 NW 10 G 16 10.00 Overcast OVC090 58.8 25.7 28% 29.55 0.0
08 17:15 W 10 10.00 Overcast OVC090 59 25 27% 29.55 0.0
08 16:55 W 12 G 18 10.00 Overcast OVC090 59 25.5 28% 29.56 0.0
08 16:35 W 9 10.00 Mostly Cloudy BKN090 59.2 25.9 28% 29.56 0.0
08 16:15 W 14 G 20 10.00 Mostly Cloudy SCT070 BKN090 59.5 25.5 27% 29.56 0.0
08 15:55 W 13 G 21 10.00 Overcast SCT070 OVC090 59.9 25.9 27% 29.57 0.0
08 15:35 W 14 G 20 10.00 Mostly Cloudy BKN090 59.4 25.3 27% 29.57 0.0
08 15:15 W 15 G 25 10.00 Partly Cloudy SCT080 SCT090 59.5 25.2 27% 29.58 0.0
08 14:55 W 14 G 18 10.00 Mostly Cloudy SCT080 SCT090 BKN120 59.2 24.6 27% 29.59 0.0
08 14:35 W 10 G 23 10.00 Mostly Cloudy SCT080 BKN120 59 24.6 27% 29.59 0.0
08 14:15 W 14 G 18 10.00 Partly Cloudy SCT085 SCT090 59 24.4 26% 29.6 0.0
08 13:55 W 14 G 25 10.00 Partly Cloudy SCT085 58.5 24.4 27% 29.61 0.0
08 13:35 W 9 G 18 10.00 Partly Cloudy SCT085 59.9 26.2 28% 29.61 0.0
08 13:15 SW 13 G 21 10.00 Fair CLR 57.7 25.2 29% 29.63 0.0
08 12:55 SW 9 G 17 10.00 Fair CLR 57.6 25.7 57.9 26.6 29% 29.64 0.0
08 12:35 SW 12 10.00 Partly Cloudy SCT120 57.2 25.7 30% 29.64 0.0
08 12:15 SW 9 G 18 10.00 Partly Cloudy SCT110 55.8 25.2 31% 29.66 0.0
08 11:55 W 10 G 24 10.00 Partly Cloudy SCT100 56.1 23.9 29% 29.66 0.0
08 11:35 W 6 G 16 10.00 Partly Cloudy SCT100 56.7 23.2 27% 29.67 0.0
08 11:15 NW 9 10.00 Partly Cloudy SCT120 56.1 23 28% 29.68 0.0
08 10:55 SW 8 10.00 Mostly Cloudy SCT070 BKN120 54.9 24.3 31% 29.69 0.0
08 10:35 W 10 G 17 10.00 Partly Cloudy SCT070 SCT080 53.6 20.3 27% 29.7 0.0
08 10:15 NW 7 10.00 Fair CLR 53.4 23 31% 29.71 0.0
08 09:55 W 6 10.00 Fair CLR 51.3 26.1 38% 29.71 0.0
08 09:35 W 6 10.00 Partly Cloudy SCT095 50 25.7 39% 48 29.71 0.0
08 09:15 W 6 10.00 Partly Cloudy SCT120 48.4 26.2 42% 46 29.72 0.0
08 08:55 W 7 10.00 Partly Cloudy SCT120 47.5 26.1 43% 45 29.72 0.0
08 08:35 W 6 10.00 Fair CLR 44.1 25.9 49% 41 29.73 0.0
08 08:15 W 5 10.00 Fair CLR 41.2 25.7 54% 39 29.73 0.0
08 07:55 W 3 10.00 Fair CLR 39 26.6 61% 29.73 0.0
08 07:35 Calm 10.00 Fair CLR 34 30.4 87% 29.73 0.0
08 07:15 Calm 10.00 Fair CLR 29.5 27.3 92% 29.73 0.0
08 06:55 Calm 10.00 Fair CLR 25.7 23.9 26.4 21.7 93% 29.73 0.0
08 06:35 Calm 10.00 Fair CLR 22.5 21 94% 29.73 0.0
08 06:15 Calm 10.00 Fair CLR 21.9 20.8 96% 29.73 0.0
08 05:55 Calm 10.00 Fair CLR 22.1 20.7 94% 29.73 0.0
08 05:35 Calm 10.00 Fair CLR 21.7 20.3 94% 29.73 0.0
08 05:15 Calm 10.00 Fair CLR 21.9 20.3 93% 29.73 0.0
08 04:55 Calm 10.00 Fair CLR 22.5 20.7 93% 29.73 0.0
08 04:35 Calm 10.00 Fair CLR 22.6 21.2 94% 29.73 0.0
08 04:15 Calm 10.00 Fair CLR 22.5 21 94% 29.73 0.0
08 03:55 Calm 10.00 Fair CLR 23.5 21.9 94% 29.73 0.0
08 03:35 Calm 10.00 Fair CLR 23.4 21.9 94% 29.73 0.0
08 03:15 Calm 10.00 Fair CLR 23.5 21.9 94% 29.74 0.0
08 02:55 Calm 10.00 Fair CLR 23.4 21.2 91% 29.74 0.0
08 02:35 Calm 10.00 Fair CLR 24.3 22.5 93% 29.75 0.0
08 02:15 Calm 10.00 Fair CLR 24.8 22.8 92% 29.75 0.0
08 01:55 Calm 10.00 Fair CLR 24.6 22.3 91% 29.76 0.0
08 01:35 Calm 10.00 Fair CLR 25.3 22.8 90% 29.76 0.0
08 01:15 Calm 10.00 Fair CLR 25.5 22.5 88% 29.77 0.0
08 00:55 Calm 10.00 Fair CLR 26.6 23.2 48.4 26.4 87% 29.77 0.0
08 00:35 Calm 10.00 Fair CLR 27.3 22.1 81% 29.78 0.0
08 00:15 Calm 10.00 Fair CLR 27.3 23.2 84% 29.78 0.0
07 23:55 Calm 10.00 Fair CLR 28 21.9 78% 29.79 0.0
07 23:35 Calm 10.00 Fair CLR 28 22.8 81% 29.79 0.0
07 23:15 Calm 10.00 Fair CLR 29.1 21.7 74% 29.79 0.0
07 22:55 Calm 10.00 Fair CLR 29.7 22.1 73% 29.79 0.0
07 22:35 Calm 10.00 Fair CLR 29.8 21.9 72% 29.8 0.0
07 21:55 Calm 10.00 Fair CLR 32.9 21.7 64% 29.8 0.0
07 21:35 Calm 10.00 Fair CLR 34.3 22.1 61% 29.79 0.0
07 21:15 Calm 10.00 Fair CLR 36.1 21.9 56% 29.79 0.0
07 20:55 Calm 10.00 Fair CLR 41.4 20.3 43% 29.78 0.0
07 20:35 NW 3 10.00 Fair CLR 44.1 19.8 38% 29.78 0.0
07 20:15 NW 5 10.00 Fair CLR 45.9 19.4 35% 44 29.77 0.0
07 19:55 NW 7 10.00 Fair CLR 46.8 19.4 34% 44 29.77 0.0
07 19:35 NW 8 10.00 Fair CLR 47.3 19.4 33% 44 29.77 0.0
07 19:15 N 8 G 16 10.00 Fair CLR 48.2 19.8 32% 45 29.77 0.0
07 18:55 W 12 G 18 10.00 Partly Cloudy SCT080 48.7 20.1 50.5 40.5 32% 44 29.77 0.0
07 18:35 NW 13 G 18 10.00 Partly Cloudy SCT075 49.1 19.9 32% 45 29.77 0.0
07 18:15 W 14 G 21 10.00 Mostly Cloudy BKN075 50 20.3 31% 45 29.77 0.0
07 17:55 NW 15 G 23 10.00 Partly Cloudy SCT075 50.4 21 31% 29.77 0.0
07 17:35 NW 13 G 21 10.00 Partly Cloudy SCT070 50 20.7 31% 46 29.77 0.0
07 17:15 NW 15 G 23 10.00 Partly Cloudy SCT070 48.9 20.3 32% 44 29.77 0.0
07 16:55 W 13 G 21 10.00 Mostly Cloudy SCT070 BKN090 48.9 20.8 33% 44 29.77 0.0
07 16:35 NW 16 G 24 10.00 Mostly Cloudy SCT070 BKN080 50.2 21.2 32% 29.78 0.0
07 16:15 W 12 G 22 10.00 Mostly Cloudy BKN070 BKN080 49.5 20.5 32% 45 29.78 0.0
07 15:55 NW 15 G 21 10.00 Mostly Cloudy SCT065 BKN075 48.9 21.2 33% 44 29.78 0.0
07 15:35 NW 13 G 24 10.00 Mostly Cloudy SCT065 BKN075 49.5 22.5 35% 45 29.78 0.0
07 15:15 NW 14 G 22 10.00 Mostly Cloudy SCT065 BKN075 BKN090 47.1 22.5 38% 42 29.78 0.0
07 14:55 W 15 G 22 10.00 Mostly Cloudy SCT055 BKN100 47.7 23.7 39% 42 29.79 0.0
07 14:35 W 16 G 22 10.00 Overcast SCT055 BKN065 OVC100 46.2 25 43% 40 29.79 0.0
07 14:15 W 10 10.00 Overcast BKN050 BKN075 OVC110 46.6 28 49% 42 29.79 0.0
07 13:55 NW 12 G 16 10.00 Overcast SCT038 BKN055 OVC110 45.3 28.8 52% 40 29.8 0.0
07 13:35 NW 13 G 23 10.00 Light Rain SCT035 BKN044 OVC050 41.7 28.8 60% 35 29.81 0.0
07 13:15 NW 13 G 18 10.00 Overcast SCT033 BKN049 OVC065 44.6 26.4 49% 39 29.8 0.0
07 12:55 NW 10 10.00 Overcast SCT029 SCT037 OVC048 44.6 27.3 46.9 30.2 51% 40 29.8 0.0
07 12:35 N 6 10.00 Overcast SCT033 BKN048 OVC120 43.5 29.3 57% 41 29.81 0.0
07 12:15 NW 9 G 18 10.00 Mostly Cloudy SCT038 BKN050 BKN090 44.8 25.5 47% 40 29.81 0.0
07 11:55 NW 12 G 18 10.00 Overcast SCT041 BKN050 OVC090 44.2 24.3 45% 39 29.81 0.0
07 11:35 W 16 G 22 10.00 Overcast BKN047 BKN060 OVC090 44.4 25.2 47% 38 29.82 0.0
07 11:15 W 15 G 18 10.00 Overcast SCT035 BKN047 OVC090 45.7 26.4 47% 40 29.82 0.0
Date Time (cdt) Wind (mph) Vis. (mi.) Weather Sky Cond. Air Dwpt Max. Min. Relative Humidity Wind Chill (°F) Heat Index (°F) altimeter (in) sea level (mb) 1 hr 3 hr 6 hr
6 hour
Temperature (ºF) Pressure Precipitation (in)